Terminal Aerodrome Forecast
Issued by NWS Green Bay, WI

Home | Current Version | Previous Version | Text Only | Print | Product List | Glossary On
Versions: 1 2 3 4 5 6 7 8 9 10 11 12 13 14 15 16 17 18 19 20 21 22 23 24
000
FTUS43 KGRB 200520
TAFGRB
TAF
KGRB 200520Z 2006/2106 19006KT P6SM SKC
     FM201500 20010G17KT P6SM BKN250
     FM202300 17008KT P6SM BKN250
     FM210200 17008KT P6SM BKN200 WS010/20040KT=

USA.gov is the U.S. government's official web portal to all federal, state and local government web resources and services.